sensor_id;sensor_type;location;lat;lon;timestamp;temperature;humidity
26103;DHT22;69760;49.380;8.998;2023-08-06T00:01:30;17.60;99.90
26103;DHT22;69760;49.380;8.998;2023-08-06T00:03:56;17.50;99.90
26103;DHT22;69760;49.380;8.998;2023-08-06T00:06:22;17.40;99.90
26103;DHT22;69760;49.380;8.998;2023-08-06T00:08:47;17.40;99.90
26103;DHT22;69760;49.380;8.998;2023-08-06T00:11:13;17.40;99.90
26103;DHT22;69760;49.380;8.998;2023-08-06T00:13:38;17.40;99.90
26103;DHT22;69760;49.380;8.998;2023-08-06T00:16:13;17.40;99.90
26103;DHT22;69760;49.380;8.998;2023-08-06T00:18:40;17.30;99.90
26103;DHT22;69760;49.380;8.998;2023-08-06T00:21:05;17.30;99.90
26103;DHT22;69760;49.380;8.998;2023-08-06T00:23:31;17.30;99.90
26103;DHT22;69760;49.380;8.998;2023-08-06T00:25:56;17.30;99.90
26103;DHT22;69760;49.380;8.998;2023-08-06T00:28:22;17.30;99.90
26103;DHT22;69760;49.380;8.998;2023-08-06T00:30:56;17.30;99.90
26103;DHT22;69760;49.380;8.998;2023-08-06T00:33:22;17.30;99.90
26103;DHT22;69760;49.380;8.998;2023-08-06T00:35:48;17.30;99.90
26103;DHT22;69760;49.380;8.998;2023-08-06T00:38:14;17.30;99.90
26103;DHT22;69760;49.380;8.998;2023-08-06T00:40:39;17.30;99.90
26103;DHT22;69760;49.380;8.998;2023-08-06T00:43:05;17.20;99.90
26103;DHT22;69760;49.380;8.998;2023-08-06T00:45:34;17.20;99.90
26103;DHT22;69760;49.380;8.998;2023-08-06T00:48:00;17.30;99.90
26103;DHT22;69760;49.380;8.998;2023-08-06T00:50:26;17.30;99.90
26103;DHT22;69760;49.380;8.998;2023-08-06T00:52:52;17.20;99.90
26103;DHT22;69760;49.380;8.998;2023-08-06T00:55:18;17.30;99.90
26103;DHT22;69760;49.380;8.998;2023-08-06T00:57:44;17.30;99.90
26103;DHT22;69760;49.380;8.998;2023-08-06T01:00:10;17.20;99.90
26103;DHT22;69760;49.380;8.998;2023-08-06T01:02:36;17.20;99.90
26103;DHT22;69760;49.380;8.998;2023-08-06T01:05:02;17.20;99.90
26103;DHT22;69760;49.380;8.998;2023-08-06T01:10:37;17.10;99.90
26103;DHT22;69760;49.380;8.998;2023-08-06T01:15:54;17.20;99.90
26103;DHT22;69760;49.380;8.998;2023-08-06T01:18:22;17.30;99.90
26103;DHT22;69760;49.380;8.998;2023-08-06T01:20:48;17.30;99.90
26103;DHT22;69760;49.380;8.998;2023-08-06T01:23:15;17.30;99.90
26103;DHT22;69760;49.380;8.998;2023-08-06T01:25:53;17.30;99.90
26103;DHT22;69760;49.380;8.998;2023-08-06T01:28:52;17.30;99.90
26103;DHT22;69760;49.380;8.998;2023-08-06T01:31:20;17.30;99.90
26103;DHT22;69760;49.380;8.998;2023-08-06T01:33:48;17.40;99.90
26103;DHT22;69760;49.380;8.998;2023-08-06T01:36:16;17.30;99.90
26103;DHT22;69760;49.380;8.998;2023-08-06T01:38:42;17.40;99.90
26103;DHT22;69760;49.380;8.998;2023-08-06T01:41:08;17.30;99.90
26103;DHT22;69760;49.380;8.998;2023-08-06T01:43:33;17.30;99.90
26103;DHT22;69760;49.380;8.998;2023-08-06T01:45:59;17.40;99.90
26103;DHT22;69760;49.380;8.998;2023-08-06T01:48:24;17.30;99.90
26103;DHT22;69760;49.380;8.998;2023-08-06T01:50:50;17.30;99.90
26103;DHT22;69760;49.380;8.998;2023-08-06T01:53:15;17.30;99.90
26103;DHT22;69760;49.380;8.998;2023-08-06T01:55:41;17.30;99.90
26103;DHT22;69760;49.380;8.998;2023-08-06T01:58:06;17.30;99.90
26103;DHT22;69760;49.380;8.998;2023-08-06T02:00:32;17.30;99.90
26103;DHT22;69760;49.380;8.998;2023-08-06T02:02:58;17.30;99.90
26103;DHT22;69760;49.380;8.998;2023-08-06T02:05:23;17.30;99.90
26103;DHT22;69760;49.380;8.998;2023-08-06T02:07:49;17.40;99.90
26103;DHT22;69760;49.380;8.998;2023-08-06T02:10:14;17.40;99.90
26103;DHT22;69760;49.380;8.998;2023-08-06T02:12:40;17.40;99.90
26103;DHT22;69760;49.380;8.998;2023-08-06T02:15:06;17.40;99.90
26103;DHT22;69760;49.380;8.998;2023-08-06T02:17:32;17.40;99.90
26103;DHT22;69760;49.380;8.998;2023-08-06T02:19:57;17.40;99.90
26103;DHT22;69760;49.380;8.998;2023-08-06T02:22:23;17.40;99.90
26103;DHT22;69760;49.380;8.998;2023-08-06T02:24:49;17.40;99.90
26103;DHT22;69760;49.380;8.998;2023-08-06T02:27:15;17.40;99.90
26103;DHT22;69760;49.380;8.998;2023-08-06T02:29:40;17.50;99.90
26103;DHT22;69760;49.380;8.998;2023-08-06T02:32:07;17.50;99.90
26103;DHT22;69760;49.380;8.998;2023-08-06T02:34:33;17.50;99.90
26103;DHT22;69760;49.380;8.998;2023-08-06T02:36:58;17.50;99.90
26103;DHT22;69760;49.380;8.998;2023-08-06T02:39:24;17.50;99.90
26103;DHT22;69760;49.380;8.998;2023-08-06T02:41:49;17.40;99.90
26103;DHT22;69760;49.380;8.998;2023-08-06T02:44:15;17.40;99.90
26103;DHT22;69760;49.380;8.998;2023-08-06T02:46:40;17.40;99.90
26103;DHT22;69760;49.380;8.998;2023-08-06T02:49:06;17.40;99.90
26103;DHT22;69760;49.380;8.998;2023-08-06T02:51:32;17.40;99.90
26103;DHT22;69760;49.380;8.998;2023-08-06T02:53:57;17.40;99.90
26103;DHT22;69760;49.380;8.998;2023-08-06T02:56:23;17.40;99.90
26103;DHT22;69760;49.380;8.998;2023-08-06T02:58:48;17.30;99.90
26103;DHT22;69760;49.380;8.998;2023-08-06T03:01:14;17.20;99.90
26103;DHT22;69760;49.380;8.998;2023-08-06T03:03:39;17.30;99.90
26103;DHT22;69760;49.380;8.998;2023-08-06T03:06:05;17.20;99.90
26103;DHT22;69760;49.380;8.998;2023-08-06T03:08:31;17.20;99.90
26103;DHT22;69760;49.380;8.998;2023-08-06T03:10:56;17.30;99.90
26103;DHT22;69760;49.380;8.998;2023-08-06T03:13:22;17.30;99.90
26103;DHT22;69760;49.380;8.998;2023-08-06T03:15:58;17.30;99.90
26103;DHT22;69760;49.380;8.998;2023-08-06T03:18:25;17.30;99.90
26103;DHT22;69760;49.380;8.998;2023-08-06T03:20:53;17.30;99.90
26103;DHT22;69760;49.380;8.998;2023-08-06T03:23:19;17.30;99.90
26103;DHT22;69760;49.380;8.998;2023-08-06T03:25:45;17.20;99.90
26103;DHT22;69760;49.380;8.998;2023-08-06T03:28:11;17.20;99.90
26103;DHT22;69760;49.380;8.998;2023-08-06T03:30:38;17.20;99.90
26103;DHT22;69760;49.380;8.998;2023-08-06T03:33:04;17.20;99.90
26103;DHT22;69760;49.380;8.998;2023-08-06T03:35:29;17.20;99.90
26103;DHT22;69760;49.380;8.998;2023-08-06T03:37:55;17.20;99.90
26103;DHT22;69760;49.380;8.998;2023-08-06T03:40:20;17.20;99.90
26103;DHT22;69760;49.380;8.998;2023-08-06T03:42:46;17.10;99.90
26103;DHT22;69760;49.380;8.998;2023-08-06T03:45:11;17.00;99.90
26103;DHT22;69760;49.380;8.998;2023-08-06T03:47:37;16.90;99.90
26103;DHT22;69760;49.380;8.998;2023-08-06T03:50:03;16.90;99.90
26103;DHT22;69760;49.380;8.998;2023-08-06T03:52:28;16.90;99.90
26103;DHT22;69760;49.380;8.998;2023-08-06T03:54:54;16.80;99.90
26103;DHT22;69760;49.380;8.998;2023-08-06T03:57:19;16.80;99.90
26103;DHT22;69760;49.380;8.998;2023-08-06T03:59:45;16.80;99.90
26103;DHT22;69760;49.380;8.998;2023-08-06T04:02:10;16.70;99.90
26103;DHT22;69760;49.380;8.998;2023-08-06T04:04:36;16.60;99.90
26103;DHT22;69760;49.380;8.998;2023-08-06T04:07:02;16.50;99.90
26103;DHT22;69760;49.380;8.998;2023-08-06T04:09:29;16.50;99.90
26103;DHT22;69760;49.380;8.998;2023-08-06T04:11:54;16.40;99.90
26103;DHT22;69760;49.380;8.998;2023-08-06T04:14:21;16.30;99.90
26103;DHT22;69760;49.380;8.998;2023-08-06T04:16:46;16.20;99.90
26103;DHT22;69760;49.380;8.998;2023-08-06T04:19:12;16.10;99.90
26103;DHT22;69760;49.380;8.998;2023-08-06T04:21:38;16.00;99.90
26103;DHT22;69760;49.380;8.998;2023-08-06T04:24:03;16.00;99.90
26103;DHT22;69760;49.380;8.998;2023-08-06T04:26:29;15.90;99.90
26103;DHT22;69760;49.380;8.998;2023-08-06T04:28:55;15.80;99.90
26103;DHT22;69760;49.380;8.998;2023-08-06T04:31:21;15.80;99.90
26103;DHT22;69760;49.380;8.998;2023-08-06T04:33:46;15.90;99.90
26103;DHT22;69760;49.380;8.998;2023-08-06T04:36:12;15.90;99.90
26103;DHT22;69760;49.380;8.998;2023-08-06T04:38:37;15.90;99.90
26103;DHT22;69760;49.380;8.998;2023-08-06T04:41:04;15.70;99.90
26103;DHT22;69760;49.380;8.998;2023-08-06T04:43:29;15.70;99.90
26103;DHT22;69760;49.380;8.998;2023-08-06T04:45:55;15.70;99.90
26103;DHT22;69760;49.380;8.998;2023-08-06T04:48:22;15.80;99.90
26103;DHT22;69760;49.380;8.998;2023-08-06T04:50:49;15.70;99.90
26103;DHT22;69760;49.380;8.998;2023-08-06T04:53:15;15.70;99.90
26103;DHT22;69760;49.380;8.998;2023-08-06T04:55:41;15.60;99.90
26103;DHT22;69760;49.380;8.998;2023-08-06T04:58:07;15.50;99.90
26103;DHT22;69760;49.380;8.998;2023-08-06T05:00:33;15.60;99.90
26103;DHT22;69760;49.380;8.998;2023-08-06T05:03:02;15.50;99.90
26103;DHT22;69760;49.380;8.998;2023-08-06T05:05:28;15.70;99.90
26103;DHT22;69760;49.380;8.998;2023-08-06T05:07:54;15.60;99.90
26103;DHT22;69760;49.380;8.998;2023-08-06T05:10:20;15.60;99.90
26103;DHT22;69760;49.380;8.998;2023-08-06T05:12:46;15.40;99.90
26103;DHT22;69760;49.380;8.998;2023-08-06T05:15:12;15.40;99.90
26103;DHT22;69760;49.380;8.998;2023-08-06T05:17:37;15.40;99.90
26103;DHT22;69760;49.380;8.998;2023-08-06T05:20:03;15.40;99.90
26103;DHT22;69760;49.380;8.998;2023-08-06T05:22:29;15.40;99.90
26103;DHT22;69760;49.380;8.998;2023-08-06T05:24:55;15.30;99.90
26103;DHT22;69760;49.380;8.998;2023-08-06T05:27:20;15.20;99.90
26103;DHT22;69760;49.380;8.998;2023-08-06T05:29:47;15.20;99.90
26103;DHT22;69760;49.380;8.998;2023-08-06T05:32:13;15.20;99.90
26103;DHT22;69760;49.380;8.998;2023-08-06T05:34:38;15.10;99.90
26103;DHT22;69760;49.380;8.998;2023-08-06T05:37:04;15.10;99.90
26103;DHT22;69760;49.380;8.998;2023-08-06T05:39:30;15.00;99.90
26103;DHT22;69760;49.380;8.998;2023-08-06T05:41:56;15.00;99.90
26103;DHT22;69760;49.380;8.998;2023-08-06T05:44:23;15.00;99.90
26103;DHT22;69760;49.380;8.998;2023-08-06T05:46:49;15.10;99.90
26103;DHT22;69760;49.380;8.998;2023-08-06T05:49:15;15.10;99.90
26103;DHT22;69760;49.380;8.998;2023-08-06T05:51:41;15.10;99.90
26103;DHT22;69760;49.380;8.998;2023-08-06T05:54:07;15.20;99.90
26103;DHT22;69760;49.380;8.998;2023-08-06T05:56:33;15.30;99.90
26103;DHT22;69760;49.380;8.998;2023-08-06T05:58:59;15.30;99.90
26103;DHT22;69760;49.380;8.998;2023-08-06T06:01:24;15.30;99.90
26103;DHT22;69760;49.380;8.998;2023-08-06T06:03:50;15.30;99.90
26103;DHT22;69760;49.380;8.998;2023-08-06T06:06:16;15.20;99.90
26103;DHT22;69760;49.380;8.998;2023-08-06T06:08:42;15.20;99.90
26103;DHT22;69760;49.380;8.998;2023-08-06T06:11:08;15.20;99.90
26103;DHT22;69760;49.380;8.998;2023-08-06T06:13:33;15.10;99.90
26103;DHT22;69760;49.380;8.998;2023-08-06T06:15:59;15.10;99.90
26103;DHT22;69760;49.380;8.998;2023-08-06T06:18:25;15.10;99.90
26103;DHT22;69760;49.380;8.998;2023-08-06T06:20:50;15.20;99.90
26103;DHT22;69760;49.380;8.998;2023-08-06T06:23:16;15.20;99.90
26103;DHT22;69760;49.380;8.998;2023-08-06T06:25:50;15.20;99.90
26103;DHT22;69760;49.380;8.998;2023-08-06T06:28:19;15.10;99.90
26103;DHT22;69760;49.380;8.998;2023-08-06T06:30:45;15.20;99.90
26103;DHT22;69760;49.380;8.998;2023-08-06T06:33:10;15.10;99.90
26103;DHT22;69760;49.380;8.998;2023-08-06T06:35:37;15.10;99.90
26103;DHT22;69760;49.380;8.998;2023-08-06T06:38:02;15.10;99.90
26103;DHT22;69760;49.380;8.998;2023-08-06T06:40:28;15.10;99.90
26103;DHT22;69760;49.380;8.998;2023-08-06T06:42:54;15.00;99.90
26103;DHT22;69760;49.380;8.998;2023-08-06T06:45:19;15.00;99.90
26103;DHT22;69760;49.380;8.998;2023-08-06T06:47:45;15.00;99.90
26103;DHT22;69760;49.380;8.998;2023-08-06T06:50:10;15.00;99.90
26103;DHT22;69760;49.380;8.998;2023-08-06T06:52:36;15.00;99.90
26103;DHT22;69760;49.380;8.998;2023-08-06T06:55:02;15.00;99.90
26103;DHT22;69760;49.380;8.998;2023-08-06T06:57:28;14.90;99.90
26103;DHT22;69760;49.380;8.998;2023-08-06T06:59:53;14.90;99.90
26103;DHT22;69760;49.380;8.998;2023-08-06T07:02:19;14.80;99.90
26103;DHT22;69760;49.380;8.998;2023-08-06T07:04:44;14.90;99.90
26103;DHT22;69760;49.380;8.998;2023-08-06T07:07:10;15.00;99.90
26103;DHT22;69760;49.380;8.998;2023-08-06T07:09:36;14.90;99.90
26103;DHT22;69760;49.380;8.998;2023-08-06T07:12:01;14.90;99.90
26103;DHT22;69760;49.380;8.998;2023-08-06T07:14:28;14.90;99.90
26103;DHT22;69760;49.380;8.998;2023-08-06T07:16:54;14.80;99.90
26103;DHT22;69760;49.380;8.998;2023-08-06T07:19:20;14.80;99.90
26103;DHT22;69760;49.380;8.998;2023-08-06T07:21:45;14.80;99.90
26103;DHT22;69760;49.380;8.998;2023-08-06T07:24:11;14.80;99.90
26103;DHT22;69760;49.380;8.998;2023-08-06T07:26:37;14.80;99.90
26103;DHT22;69760;49.380;8.998;2023-08-06T07:29:03;14.80;99.90
26103;DHT22;69760;49.380;8.998;2023-08-06T07:31:28;14.90;99.90
26103;DHT22;69760;49.380;8.998;2023-08-06T07:33:54;14.90;99.90
26103;DHT22;69760;49.380;8.998;2023-08-06T07:36:20;14.90;99.90
26103;DHT22;69760;49.380;8.998;2023-08-06T07:38:46;15.00;99.90
26103;DHT22;69760;49.380;8.998;2023-08-06T07:41:12;15.10;99.90
26103;DHT22;69760;49.380;8.998;2023-08-06T07:43:38;15.00;99.90
26103;DHT22;69760;49.380;8.998;2023-08-06T07:46:03;15.00;99.90
26103;DHT22;69760;49.380;8.998;2023-08-06T07:48:29;15.00;99.90
26103;DHT22;69760;49.380;8.998;2023-08-06T07:50:55;15.00;99.90
26103;DHT22;69760;49.380;8.998;2023-08-06T07:53:22;15.10;99.90
26103;DHT22;69760;49.380;8.998;2023-08-06T07:55:51;15.10;99.90
26103;DHT22;69760;49.380;8.998;2023-08-06T07:58:18;15.10;99.90
26103;DHT22;69760;49.380;8.998;2023-08-06T08:00:43;15.10;99.90
26103;DHT22;69760;49.380;8.998;2023-08-06T08:03:14;15.10;99.90
26103;DHT22;69760;49.380;8.998;2023-08-06T08:05:40;15.10;99.90
26103;DHT22;69760;49.380;8.998;2023-08-06T08:08:06;15.10;99.90
26103;DHT22;69760;49.380;8.998;2023-08-06T08:10:32;15.00;99.90
26103;DHT22;69760;49.380;8.998;2023-08-06T08:12:58;15.00;99.90
26103;DHT22;69760;49.380;8.998;2023-08-06T08:15:25;15.00;99.90
26103;DHT22;69760;49.380;8.998;2023-08-06T08:17:53;15.00;99.90
26103;DHT22;69760;49.380;8.998;2023-08-06T08:20:20;15.10;99.90
26103;DHT22;69760;49.380;8.998;2023-08-06T08:22:46;15.00;99.90
26103;DHT22;69760;49.380;8.998;2023-08-06T08:25:12;15.00;99.90
26103;DHT22;69760;49.380;8.998;2023-08-06T08:27:37;15.10;99.90
26103;DHT22;69760;49.380;8.998;2023-08-06T08:30:03;15.00;99.90
26103;DHT22;69760;49.380;8.998;2023-08-06T08:32:29;15.00;99.90
26103;DHT22;69760;49.380;8.998;2023-08-06T08:34:55;15.00;99.90
26103;DHT22;69760;49.380;8.998;2023-08-06T08:37:20;15.00;99.90
26103;DHT22;69760;49.380;8.998;2023-08-06T08:39:46;15.00;99.90
26103;DHT22;69760;49.380;8.998;2023-08-06T08:42:11;15.00;99.90
26103;DHT22;69760;49.380;8.998;2023-08-06T08:44:38;15.10;99.90
26103;DHT22;69760;49.380;8.998;2023-08-06T08:47:06;15.10;99.90
26103;DHT22;69760;49.380;8.998;2023-08-06T08:49:35;15.10;99.90
26103;DHT22;69760;49.380;8.998;2023-08-06T08:52:02;15.10;99.90
26103;DHT22;69760;49.380;8.998;2023-08-06T08:54:28;15.10;99.90
26103;DHT22;69760;49.380;8.998;2023-08-06T08:56:56;15.10;99.90
26103;DHT22;69760;49.380;8.998;2023-08-06T08:59:22;15.00;99.90
26103;DHT22;69760;49.380;8.998;2023-08-06T09:01:48;15.00;99.90
26103;DHT22;69760;49.380;8.998;2023-08-06T09:04:20;15.00;99.90
26103;DHT22;69760;49.380;8.998;2023-08-06T09:06:50;15.10;99.90
26103;DHT22;69760;49.380;8.998;2023-08-06T09:09:22;15.10;99.90
26103;DHT22;69760;49.380;8.998;2023-08-06T09:11:51;15.30;99.90
26103;DHT22;69760;49.380;8.998;2023-08-06T09:14:17;15.30;99.90
26103;DHT22;69760;49.380;8.998;2023-08-06T09:16:43;15.40;99.90
26103;DHT22;69760;49.380;8.998;2023-08-06T09:19:10;15.40;99.90
26103;DHT22;69760;49.380;8.998;2023-08-06T09:21:38;15.50;99.90
26103;DHT22;69760;49.380;8.998;2023-08-06T09:24:11;15.50;99.90
26103;DHT22;69760;49.380;8.998;2023-08-06T09:26:38;15.50;99.90
26103;DHT22;69760;49.380;8.998;2023-08-06T09:29:08;15.60;99.90
26103;DHT22;69760;49.380;8.998;2023-08-06T09:31:49;15.50;99.90
26103;DHT22;69760;49.380;8.998;2023-08-06T09:34:18;15.50;99.90
26103;DHT22;69760;49.380;8.998;2023-08-06T09:39:15;15.50;99.90
26103;DHT22;69760;49.380;8.998;2023-08-06T09:41:44;15.50;99.90
26103;DHT22;69760;49.380;8.998;2023-08-06T09:44:15;15.50;99.90
26103;DHT22;69760;49.380;8.998;2023-08-06T09:46:42;15.40;99.90
26103;DHT22;69760;49.380;8.998;2023-08-06T09:49:08;15.40;99.90
26103;DHT22;69760;49.380;8.998;2023-08-06T09:51:35;15.40;99.90
26103;DHT22;69760;49.380;8.998;2023-08-06T09:54:03;15.50;99.90
26103;DHT22;69760;49.380;8.998;2023-08-06T09:56:29;15.60;99.90
26103;DHT22;69760;49.380;8.998;2023-08-06T09:58:58;15.70;99.90
26103;DHT22;69760;49.380;8.998;2023-08-06T10:01:25;15.90;99.90
26103;DHT22;69760;49.380;8.998;2023-08-06T10:03:52;16.10;99.90
26103;DHT22;69760;49.380;8.998;2023-08-06T10:06:20;16.20;99.90
26103;DHT22;69760;49.380;8.998;2023-08-06T10:08:47;16.30;99.90
26103;DHT22;69760;49.380;8.998;2023-08-06T10:11:15;16.30;99.90
26103;DHT22;69760;49.380;8.998;2023-08-06T10:13:41;16.20;99.90
26103;DHT22;69760;49.380;8.998;2023-08-06T10:16:07;16.20;99.90
26103;DHT22;69760;49.380;8.998;2023-08-06T10:18:33;16.00;99.90
26103;DHT22;69760;49.380;8.998;2023-08-06T10:21:01;16.00;99.90
26103;DHT22;69760;49.380;8.998;2023-08-06T10:23:34;15.90;99.90
26103;DHT22;69760;49.380;8.998;2023-08-06T10:26:00;15.80;99.90
26103;DHT22;69760;49.380;8.998;2023-08-06T10:28:37;15.70;99.90
26103;DHT22;69760;49.380;8.998;2023-08-06T10:31:04;15.70;99.90
26103;DHT22;69760;49.380;8.998;2023-08-06T10:33:45;15.60;99.90
26103;DHT22;69760;49.380;8.998;2023-08-06T10:36:12;15.70;99.90
26103;DHT22;69760;49.380;8.998;2023-08-06T10:38:48;15.70;99.90
26103;DHT22;69760;49.380;8.998;2023-08-06T10:41:28;15.60;99.90
26103;DHT22;69760;49.380;8.998;2023-08-06T10:44:05;15.60;99.90
26103;DHT22;69760;49.380;8.998;2023-08-06T10:46:33;15.60;99.90
26103;DHT22;69760;49.380;8.998;2023-08-06T10:48:59;15.60;99.90
26103;DHT22;69760;49.380;8.998;2023-08-06T10:51:25;15.70;99.90
26103;DHT22;69760;49.380;8.998;2023-08-06T10:53:51;15.90;99.90
26103;DHT22;69760;49.380;8.998;2023-08-06T10:56:18;15.90;99.90
26103;DHT22;69760;49.380;8.998;2023-08-06T10:58:45;15.90;99.90
26103;DHT22;69760;49.380;8.998;2023-08-06T11:01:11;15.90;99.90
26103;DHT22;69760;49.380;8.998;2023-08-06T11:03:37;15.90;99.90
26103;DHT22;69760;49.380;8.998;2023-08-06T11:06:04;15.80;99.90
26103;DHT22;69760;49.380;8.998;2023-08-06T11:08:34;15.70;99.90
26103;DHT22;69760;49.380;8.998;2023-08-06T11:11:11;15.60;99.90
26103;DHT22;69760;49.380;8.998;2023-08-06T11:13:47;15.50;99.90
26103;DHT22;69760;49.380;8.998;2023-08-06T11:16:22;15.50;99.90
26103;DHT22;69760;49.380;8.998;2023-08-06T11:18:51;15.50;99.90
26103;DHT22;69760;49.380;8.998;2023-08-06T11:21:21;15.40;99.90
26103;DHT22;69760;49.380;8.998;2023-08-06T11:23:47;15.40;99.90
26103;DHT22;69760;49.380;8.998;2023-08-06T11:26:12;15.40;99.90
26103;DHT22;69760;49.380;8.998;2023-08-06T11:28:43;15.40;99.90
26103;DHT22;69760;49.380;8.998;2023-08-06T11:31:21;15.30;99.90
26103;DHT22;69760;49.380;8.998;2023-08-06T11:33:47;15.30;99.90
26103;DHT22;69760;49.380;8.998;2023-08-06T11:36:13;15.20;99.90
26103;DHT22;69760;49.380;8.998;2023-08-06T11:38:38;15.20;99.90
26103;DHT22;69760;49.380;8.998;2023-08-06T11:41:04;15.20;99.90
26103;DHT22;69760;49.380;8.998;2023-08-06T11:43:31;15.20;99.90
26103;DHT22;69760;49.380;8.998;2023-08-06T11:45:58;15.20;99.90
26103;DHT22;69760;49.380;8.998;2023-08-06T11:48:25;15.30;99.90
26103;DHT22;69760;49.380;8.998;2023-08-06T11:50:54;15.20;99.90
26103;DHT22;69760;49.380;8.998;2023-08-06T11:53:20;15.10;99.90
26103;DHT22;69760;49.380;8.998;2023-08-06T11:55:45;15.10;99.90
26103;DHT22;69760;49.380;8.998;2023-08-06T11:58:11;15.10;99.90
26103;DHT22;69760;49.380;8.998;2023-08-06T12:00:38;15.10;99.90
26103;DHT22;69760;49.380;8.998;2023-08-06T12:03:05;15.10;99.90
26103;DHT22;69760;49.380;8.998;2023-08-06T12:05:31;15.10;99.90
26103;DHT22;69760;49.380;8.998;2023-08-06T12:08:00;15.10;99.90
26103;DHT22;69760;49.380;8.998;2023-08-06T12:10:27;15.10;99.90
26103;DHT22;69760;49.380;8.998;2023-08-06T12:12:53;15.00;99.90
26103;DHT22;69760;49.380;8.998;2023-08-06T12:15:19;15.10;99.90
26103;DHT22;69760;49.380;8.998;2023-08-06T12:17:45;15.20;99.90
26103;DHT22;69760;49.380;8.998;2023-08-06T12:20:10;15.20;99.90
26103;DHT22;69760;49.380;8.998;2023-08-06T12:22:37;15.20;99.90
26103;DHT22;69760;49.380;8.998;2023-08-06T12:25:08;15.20;99.90
26103;DHT22;69760;49.380;8.998;2023-08-06T12:27:35;15.20;99.90
26103;DHT22;69760;49.380;8.998;2023-08-06T12:30:00;15.20;99.90
26103;DHT22;69760;49.380;8.998;2023-08-06T12:32:26;15.10;99.90
26103;DHT22;69760;49.380;8.998;2023-08-06T12:34:52;15.10;99.90
26103;DHT22;69760;49.380;8.998;2023-08-06T12:37:17;15.00;99.90
26103;DHT22;69760;49.380;8.998;2023-08-06T12:39:43;15.00;99.90
26103;DHT22;69760;49.380;8.998;2023-08-06T12:42:08;15.10;99.90
26103;DHT22;69760;49.380;8.998;2023-08-06T12:44:35;15.10;99.90
26103;DHT22;69760;49.380;8.998;2023-08-06T12:47:01;15.10;99.90
26103;DHT22;69760;49.380;8.998;2023-08-06T12:49:26;15.10;99.90
26103;DHT22;69760;49.380;8.998;2023-08-06T12:51:53;15.10;99.90
26103;DHT22;69760;49.380;8.998;2023-08-06T12:54:20;15.10;99.90
26103;DHT22;69760;49.380;8.998;2023-08-06T12:56:46;15.20;99.90
26103;DHT22;69760;49.380;8.998;2023-08-06T12:59:15;15.30;99.90
26103;DHT22;69760;49.380;8.998;2023-08-06T13:01:42;15.30;99.90
26103;DHT22;69760;49.380;8.998;2023-08-06T13:04:08;15.50;99.90
26103;DHT22;69760;49.380;8.998;2023-08-06T13:06:34;15.50;99.90
26103;DHT22;69760;49.380;8.998;2023-08-06T13:09:06;15.50;99.90
26103;DHT22;69760;49.380;8.998;2023-08-06T13:11:33;15.50;99.90
26103;DHT22;69760;49.380;8.998;2023-08-06T13:14:08;15.50;99.90
26103;DHT22;69760;49.380;8.998;2023-08-06T13:16:35;15.60;99.90
26103;DHT22;69760;49.380;8.998;2023-08-06T13:19:02;15.50;99.90
26103;DHT22;69760;49.380;8.998;2023-08-06T13:21:32;15.50;99.90
26103;DHT22;69760;49.380;8.998;2023-08-06T13:23:58;15.50;99.90
26103;DHT22;69760;49.380;8.998;2023-08-06T13:26:24;15.60;99.90
26103;DHT22;69760;49.380;8.998;2023-08-06T13:28:49;15.70;99.90
26103;DHT22;69760;49.380;8.998;2023-08-06T13:31:16;15.80;99.90
26103;DHT22;69760;49.380;8.998;2023-08-06T13:33:41;15.90;99.90
26103;DHT22;69760;49.380;8.998;2023-08-06T13:36:07;16.00;99.90
26103;DHT22;69760;49.380;8.998;2023-08-06T13:38:32;16.00;99.90
26103;DHT22;69760;49.380;8.998;2023-08-06T13:40:58;16.00;99.90
26103;DHT22;69760;49.380;8.998;2023-08-06T13:43:24;16.00;99.90
26103;DHT22;69760;49.380;8.998;2023-08-06T13:45:50;16.10;99.90
26103;DHT22;69760;49.380;8.998;2023-08-06T13:48:15;16.20;99.90
26103;DHT22;69760;49.380;8.998;2023-08-06T13:50:41;16.40;99.90
26103;DHT22;69760;49.380;8.998;2023-08-06T13:53:06;16.50;99.90
26103;DHT22;69760;49.380;8.998;2023-08-06T13:55:32;16.60;99.90
26103;DHT22;69760;49.380;8.998;2023-08-06T13:57:57;16.70;99.90
26103;DHT22;69760;49.380;8.998;2023-08-06T14:00:23;16.60;99.90
26103;DHT22;69760;49.380;8.998;2023-08-06T14:02:49;16.70;99.90
26103;DHT22;69760;49.380;8.998;2023-08-06T14:05:14;16.60;99.90
26103;DHT22;69760;49.380;8.998;2023-08-06T14:07:40;16.70;99.90
26103;DHT22;69760;49.380;8.998;2023-08-06T14:10:06;16.70;99.90
26103;DHT22;69760;49.380;8.998;2023-08-06T14:12:32;16.70;99.90
26103;DHT22;69760;49.380;8.998;2023-08-06T14:14:57;16.60;99.90
26103;DHT22;69760;49.380;8.998;2023-08-06T14:17:23;16.50;99.90
26103;DHT22;69760;49.380;8.998;2023-08-06T14:19:48;16.50;99.90
26103;DHT22;69760;49.380;8.998;2023-08-06T14:22:14;16.40;99.90
26103;DHT22;69760;49.380;8.998;2023-08-06T14:24:39;16.50;99.90
26103;DHT22;69760;49.380;8.998;2023-08-06T14:27:06;16.60;99.90
26103;DHT22;69760;49.380;8.998;2023-08-06T14:29:31;16.70;99.90
26103;DHT22;69760;49.380;8.998;2023-08-06T14:31:57;16.60;99.90
26103;DHT22;69760;49.380;8.998;2023-08-06T14:34:23;16.60;99.90
26103;DHT22;69760;49.380;8.998;2023-08-06T14:36:48;16.50;99.90
26103;DHT22;69760;49.380;8.998;2023-08-06T14:39:14;16.50;99.90
26103;DHT22;69760;49.380;8.998;2023-08-06T14:41:39;16.50;99.90
26103;DHT22;69760;49.380;8.998;2023-08-06T14:44:05;16.50;99.90
26103;DHT22;69760;49.380;8.998;2023-08-06T14:46:32;16.50;99.90
26103;DHT22;69760;49.380;8.998;2023-08-06T14:48:58;16.40;99.90
26103;DHT22;69760;49.380;8.998;2023-08-06T14:51:24;16.40;99.90
26103;DHT22;69760;49.380;8.998;2023-08-06T14:53:49;16.50;99.90
26103;DHT22;69760;49.380;8.998;2023-08-06T14:56:15;16.60;99.90
26103;DHT22;69760;49.380;8.998;2023-08-06T14:58:41;16.60;99.90
26103;DHT22;69760;49.380;8.998;2023-08-06T15:01:07;16.70;99.90
26103;DHT22;69760;49.380;8.998;2023-08-06T15:03:33;16.70;99.90
26103;DHT22;69760;49.380;8.998;2023-08-06T15:05:59;16.70;99.90
26103;DHT22;69760;49.380;8.998;2023-08-06T15:08:24;16.70;99.90
26103;DHT22;69760;49.380;8.998;2023-08-06T15:10:51;16.60;99.90
26103;DHT22;69760;49.380;8.998;2023-08-06T15:13:18;16.60;99.90
26103;DHT22;69760;49.380;8.998;2023-08-06T15:15:45;16.50;99.90
26103;DHT22;69760;49.380;8.998;2023-08-06T15:18:11;16.40;99.90
26103;DHT22;69760;49.380;8.998;2023-08-06T15:20:37;16.40;99.90
26103;DHT22;69760;49.380;8.998;2023-08-06T15:23:02;16.30;99.90
26103;DHT22;69760;49.380;8.998;2023-08-06T15:25:28;16.30;99.90
26103;DHT22;69760;49.380;8.998;2023-08-06T15:27:53;16.20;99.90
26103;DHT22;69760;49.380;8.998;2023-08-06T15:30:19;16.30;99.90
26103;DHT22;69760;49.380;8.998;2023-08-06T15:32:46;16.30;99.90
26103;DHT22;69760;49.380;8.998;2023-08-06T15:35:12;16.30;99.90